createdAt,value
2019-05-13T00:01:06.823Z,100510.78
2019-05-13T00:06:07.602Z,100516.09
2019-05-13T00:11:10.626Z,100516.55
2019-05-13T00:16:14.223Z,100524.92
2019-05-13T00:21:17.323Z,100514.78
2019-05-13T00:26:20.868Z,100513.78
2019-05-13T00:31:24.251Z,100513.73
2019-05-13T00:36:27.458Z,100518.14
2019-05-13T00:41:30.431Z,100526.25
2019-05-13T00:46:34.122Z,100524.51
2019-05-13T00:51:37.261Z,100529.11
2019-05-13T00:56:40.287Z,100538.20
2019-05-13T01:01:44.042Z,100531.93
2019-05-13T01:06:47.299Z,100532.93
2019-05-13T01:11:50.324Z,100534.46
2019-05-13T01:16:54.355Z,100532.47
2019-05-13T01:21:57.531Z,100527.73
2019-05-13T01:27:00.594Z,100538.74
2019-05-13T01:32:04.564Z,100546.65
2019-05-13T01:37:07.851Z,100559.02
2019-05-13T01:42:10.839Z,100567.07
2019-05-13T01:47:14.058Z,100575.52
2019-05-13T01:52:17.404Z,100570.74
2019-05-13T01:57:20.414Z,100574.41
2019-05-13T02:02:24.275Z,100562.83
2019-05-13T02:07:27.538Z,100560.88
2019-05-13T02:12:30.627Z,100555.89
2019-05-13T02:17:33.799Z,100541.23
2019-05-13T02:22:36.872Z,100537.46
2019-05-13T02:27:40.130Z,100549.15
2019-05-13T02:32:43.206Z,100553.50
2019-05-13T02:37:46.342Z,100561.55
2019-05-13T02:42:52.311Z,100561.91
2019-05-13T02:47:54.567Z,100566.36
2019-05-13T02:52:57.605Z,100566.03
2019-05-13T02:58:03.339Z,100567.36
2019-05-13T03:03:05.412Z,100574.44
2019-05-13T03:08:12.435Z,100577.08
2019-05-13T03:13:13.941Z,100582.53
2019-05-13T03:18:17.594Z,100602.95
2019-05-13T03:23:22.745Z,100599.48
2019-05-13T03:28:25.519Z,100614.28
2019-05-13T03:33:28.931Z,100620.41
2019-05-13T03:38:33.001Z,100621.72
2019-05-13T03:43:38.786Z,100623.86
2019-05-13T03:48:42.815Z,100630.92
2019-05-13T03:53:46.281Z,100624.00
2019-05-13T03:58:49.528Z,100630.45
2019-05-13T04:03:53.010Z,100631.42
2019-05-13T04:09:15.672Z,100642.44
2019-05-13T04:14:03.234Z,100651.31
2019-05-13T04:19:06.082Z,100650.67
2019-05-13T04:24:12.215Z,100651.48
2019-05-13T04:29:14.459Z,100661.52
2019-05-13T04:34:18.185Z,100662.69
2019-05-13T04:39:40.316Z,100668.75
2019-05-13T04:44:26.802Z,100662.80
2019-05-13T04:49:32.671Z,100664.50
2019-05-13T04:54:34.711Z,100673.73
2019-05-13T04:59:42.748Z,100672.31
2019-05-13T05:04:57.500Z,100677.11
2019-05-13T05:10:57.015Z,100670.02
2019-05-13T05:17:05.551Z,100670.53
2019-05-13T05:23:11.138Z,100671.19
2019-05-13T05:29:11.396Z,100680.09
2019-05-13T05:35:11.768Z,100690.94
2019-05-13T05:40:28.035Z,100695.90
2019-05-13T05:45:22.027Z,100697.73
2019-05-13T05:50:27.878Z,100699.54
2019-05-13T05:55:35.118Z,100708.78
2019-05-13T06:00:41.543Z,100707.77
2019-05-13T06:05:44.926Z,100705.48
2019-05-13T06:10:51.297Z,100709.30
2019-05-13T06:15:53.492Z,100706.80
2019-05-13T06:20:56.540Z,100714.56
2019-05-13T06:26:01.949Z,100711.61
2019-05-13T06:31:04.526Z,100715.88
2019-05-13T06:36:07.649Z,100713.09
2019-05-13T06:41:14.460Z,100718.35
2019-05-13T06:46:15.975Z,100722.80
2019-05-13T06:51:19.050Z,100730.23
2019-05-13T06:56:22.447Z,100734.32
2019-05-13T07:01:25.490Z,100738.28
2019-05-13T07:06:32.267Z,100748.00
2019-05-13T07:11:35.255Z,100754.60
2019-05-13T07:16:38.255Z,100765.13
2019-05-13T07:21:41.878Z,100765.79
2019-05-13T07:26:45.126Z,100768.77
2019-05-13T07:31:48.191Z,100778.61
2019-05-13T07:36:51.593Z,100776.33
2019-05-13T07:41:54.617Z,100776.83
2019-05-13T07:46:57.681Z,100774.36
2019-05-13T07:52:01.830Z,100782.08
2019-05-13T07:57:05.193Z,100787.02
2019-05-13T08:02:08.292Z,100782.10
2019-05-13T08:07:12.036Z,100781.58
2019-05-13T08:12:15.499Z,100793.13
2019-05-13T08:17:18.519Z,100790.00
2019-05-13T08:22:22.180Z,100798.88
2019-05-13T08:27:30.198Z,100807.45
2019-05-13T08:32:31.460Z,100806.95
2019-05-13T08:37:34.826Z,100800.66
2019-05-13T08:42:37.799Z,100814.84
2019-05-13T08:47:41.943Z,100814.33
2019-05-13T08:52:45.281Z,100821.73
2019-05-13T08:57:48.307Z,100828.80
2019-05-13T09:02:52.303Z,100838.66
2019-05-13T09:07:55.337Z,100850.49
2019-05-13T09:12:58.315Z,100841.91
2019-05-13T09:18:02.362Z,100840.72
2019-05-13T09:23:06.078Z,100843.03
2019-05-13T09:28:09.072Z,100840.64
2019-05-13T09:33:12.165Z,100835.36
2019-05-13T09:38:15.192Z,100840.16
2019-05-13T09:43:18.140Z,100845.25
2019-05-13T09:48:22.641Z,100842.47
2019-05-13T09:53:25.958Z,100841.61
2019-05-13T09:58:30.493Z,100834.86
2019-05-13T10:03:33.911Z,100835.47
2019-05-13T10:08:36.988Z,100831.42
2019-05-13T10:13:40.224Z,100843.94
2019-05-13T10:18:43.229Z,100833.42
2019-05-13T10:23:46.272Z,100832.41
2019-05-13T10:28:49.814Z,100829.26
2019-05-13T10:33:53.043Z,100832.14
2019-05-13T10:38:56.340Z,100837.60
2019-05-13T10:44:02.724Z,100833.01
2019-05-13T10:49:04.590Z,100836.49
2019-05-13T10:54:07.582Z,100833.64
2019-05-13T10:59:12.903Z,100847.68
2019-05-13T11:04:15.912Z,100845.95
2019-05-13T11:09:21.790Z,100839.84
2019-05-13T11:14:24.192Z,100843.86
2019-05-13T11:19:33.290Z,100843.53
2019-05-13T11:24:32.649Z,100842.12
2019-05-13T11:29:35.958Z,100837.69
2019-05-13T11:34:41.987Z,100825.14
2019-05-13T11:39:44.413Z,100831.80
2019-05-13T11:44:47.391Z,100840.21
2019-05-13T11:49:52.196Z,100828.73
2019-05-13T11:54:55.870Z,100835.84
2019-05-13T12:00:02.274Z,100831.38
2019-05-13T12:05:04.232Z,100822.95
2019-05-13T12:10:07.920Z,100823.33
2019-05-13T12:15:41.945Z,100830.81
2019-05-13T12:20:16.034Z,100829.83
2019-05-13T12:25:22.225Z,100834.09
2019-05-13T12:30:24.173Z,100827.16
2019-05-13T12:35:27.301Z,100832.41
2019-05-13T12:40:33.846Z,100816.95
2019-05-13T12:45:35.537Z,100812.55
2019-05-13T12:50:38.736Z,100810.45
2019-05-13T12:55:41.719Z,100802.13
2019-05-13T13:00:45.098Z,100801.75
2019-05-13T13:05:48.239Z,100803.59
2019-05-13T13:10:53.288Z,100800.25
2019-05-13T13:15:56.167Z,100788.02
2019-05-13T13:21:05.006Z,100784.48
2019-05-13T13:26:04.165Z,100785.62
2019-05-13T13:31:07.811Z,100797.88
2019-05-13T13:41:22.308Z,100795.14
2019-05-13T13:46:33.798Z,100789.19
2019-05-13T13:51:26.846Z,100785.50
2019-05-13T13:56:32.603Z,100790.45
2019-05-13T14:01:35.108Z,100780.55
2019-05-13T14:06:58.552Z,100793.09
2019-05-13T14:11:43.214Z,100778.75
2019-05-13T14:16:46.886Z,100773.95
2019-05-13T14:21:52.516Z,100759.58
2019-05-13T14:26:55.151Z,100761.41
2019-05-13T14:32:01.196Z,100755.34
2019-05-13T14:37:03.814Z,100759.23
2019-05-13T14:42:06.894Z,100752.25
2019-05-13T14:47:12.310Z,100751.95
2019-05-13T14:52:14.833Z,100754.64
2019-05-13T14:57:17.783Z,100753.00
2019-05-13T15:02:20.811Z,100766.71
2019-05-13T15:07:24.143Z,100762.47
2019-05-13T15:12:27.136Z,100763.22
2019-05-13T15:17:32.477Z,100757.68
2019-05-13T15:22:35.060Z,100760.59
2019-05-13T15:27:38.037Z,100764.55
2019-05-13T15:32:42.045Z,100766.80
2019-05-13T15:37:45.057Z,100757.52
2019-05-13T15:42:48.139Z,100763.70
2019-05-13T15:47:51.666Z,100766.36
2019-05-13T15:52:54.847Z,100750.06
2019-05-13T15:57:58.328Z,100755.44
2019-05-13T16:03:01.721Z,100766.94
2019-05-13T16:08:04.942Z,100772.41
2019-05-13T16:13:11.505Z,100773.95
2019-05-13T16:18:13.883Z,100766.25
2019-05-13T16:23:32.583Z,100778.92
2019-05-13T16:28:37.767Z,100782.32
2019-05-13T16:33:42.636Z,100786.76
2019-05-13T16:38:45.681Z,100790.81
2019-05-13T16:43:51.064Z,100792.55
2019-05-13T16:48:55.632Z,100791.50
2019-05-13T16:53:58.700Z,100798.20
2019-05-13T16:59:03.897Z,100813.41
2019-05-13T17:04:07.099Z,100821.19
2019-05-13T17:09:13.061Z,100840.26
2019-05-13T17:14:16.198Z,100853.73
2019-05-13T17:19:20.484Z,100847.30
2019-05-13T17:24:28.066Z,100851.08
2019-05-13T17:29:31.814Z,100860.46
2019-05-13T17:34:45.458Z,100861.41
2019-05-13T17:39:48.297Z,100867.80
2019-05-13T17:44:51.701Z,100872.08
2019-05-13T17:49:55.241Z,100867.47
2019-05-13T17:54:58.333Z,100861.88
2019-05-13T18:00:02.065Z,100863.19
2019-05-13T18:05:05.889Z,100868.33
2019-05-13T18:10:12.061Z,100867.50
2019-05-13T18:15:15.738Z,100874.09
2019-05-13T18:20:18.860Z,100873.59
2019-05-13T18:25:23.246Z,100875.89
2019-05-13T18:30:27.554Z,100882.64
2019-05-13T18:35:31.513Z,100889.45
2019-05-13T18:40:37.662Z,100892.73
2019-05-13T18:45:41.923Z,100894.41
2019-05-13T18:50:45.240Z,100892.44
2019-05-13T18:55:52.513Z,100894.08
2019-05-13T19:00:55.551Z,100891.25
2019-05-13T19:06:00.977Z,100883.69
2019-05-13T19:11:03.994Z,100881.02
2019-05-13T19:16:07.190Z,100878.89
2019-05-13T19:21:10.267Z,100882.34
2019-05-13T19:26:16.448Z,100891.86
2019-05-13T19:31:21.945Z,100888.90
2019-05-13T19:36:26.188Z,100883.16
2019-05-13T19:41:31.387Z,100876.91
2019-05-13T19:46:34.347Z,100868.48
2019-05-13T19:51:37.331Z,100865.20
2019-05-13T19:56:40.642Z,100866.04
2019-05-13T20:01:46.187Z,100857.48
2019-05-13T20:06:49.223Z,100859.27
2019-05-13T20:11:55.277Z,100857.79
2019-05-13T20:16:58.694Z,100847.72
2019-05-13T20:22:02.394Z,100845.09
2019-05-13T20:27:05.545Z,100833.87
2019-05-13T20:32:08.608Z,100829.13
2019-05-13T20:37:12.378Z,100823.14
2019-05-13T20:42:15.553Z,100814.88
2019-05-13T20:47:18.571Z,100821.98
2019-05-13T20:52:22.148Z,100821.50
2019-05-13T20:57:26.104Z,100819.16
2019-05-13T21:02:31.875Z,100810.06
2019-05-13T21:07:34.583Z,100809.32
2019-05-13T21:12:37.624Z,100807.67
2019-05-13T21:17:40.625Z,100801.47
2019-05-13T21:22:43.614Z,100795.27
2019-05-13T21:27:48.653Z,100792.30
2019-05-13T21:32:51.832Z,100780.25
2019-05-13T21:37:54.954Z,100780.39
2019-05-13T21:42:57.933Z,100777.55
2019-05-13T21:48:01.711Z,100769.89
2019-05-13T21:53:04.852Z,100770.59
2019-05-13T21:58:08.175Z,100772.84
2019-05-13T22:03:11.660Z,100758.23
2019-05-13T22:08:17.043Z,100754.11
2019-05-13T22:13:20.069Z,100749.84
2019-05-13T22:18:23.305Z,100747.38
2019-05-13T22:23:26.302Z,100750.44
2019-05-13T22:28:31.281Z,100744.12
2019-05-13T22:33:34.165Z,100733.28
2019-05-13T22:38:37.185Z,100735.54
2019-05-13T22:43:52.399Z,100727.16
2019-05-13T22:48:45.102Z,100722.78
2019-05-13T22:53:48.095Z,100725.06
2019-05-13T22:58:51.683Z,100726.02
2019-05-13T23:03:54.788Z,100719.70
2019-05-13T23:08:57.798Z,100719.21
2019-05-13T23:14:09.481Z,100713.95
2019-05-13T23:19:05.990Z,100706.02
2019-05-13T23:24:11.178Z,100703.59
2019-05-13T23:29:13.883Z,100695.09
2019-05-13T23:34:16.911Z,100689.90
2019-05-13T23:39:21.643Z,100684.90
2019-05-13T23:44:28.307Z,100675.66
2019-05-13T23:49:31.636Z,100665.98
2019-05-13T23:54:34.651Z,100658.41
2019-05-13T23:59:37.608Z,100651.17
